createdAt,value
2022-09-24T00:00:23.660Z,11.39
2022-09-24T00:02:45.121Z,11.38
2022-09-24T00:05:06.983Z,11.42
2022-09-24T00:07:28.409Z,11.29
2022-09-24T00:09:49.827Z,11.22
2022-09-24T00:12:13.167Z,11.25
2022-09-24T00:14:34.727Z,11.22
2022-09-24T00:16:56.141Z,11.24
2022-09-24T00:19:17.626Z,11.20
2022-09-24T00:21:40.248Z,11.13
2022-09-24T00:24:04.887Z,11.04
2022-09-24T00:26:45.207Z,11.06
2022-09-24T00:29:08.866Z,11.07
2022-09-24T00:31:31.171Z,10.90
2022-09-24T00:33:53.470Z,10.90
2022-09-24T00:36:15.635Z,10.92
2022-09-24T00:38:37.100Z,10.94
2022-09-24T00:40:59.748Z,10.67
2022-09-24T00:43:23.743Z,10.50
2022-09-24T00:45:45.164Z,10.55
2022-09-24T00:48:08.457Z,10.39
2022-09-24T00:50:34.984Z,10.40
2022-09-24T00:53:01.696Z,10.55
2022-09-24T00:55:24.627Z,10.52
2022-09-24T00:57:48.696Z,10.39
2022-09-24T01:00:11.056Z,10.40
2022-09-24T01:02:35.434Z,10.37
2022-09-24T01:04:57.403Z,10.43
2022-09-24T01:07:18.827Z,10.46
2022-09-24T01:09:40.380Z,10.51
2022-09-24T01:12:28.517Z,10.53
2022-09-24T01:15:06.911Z,10.57
2022-09-24T01:17:40.178Z,10.45
2022-09-24T01:20:33.050Z,10.36
2022-09-24T01:23:17.116Z,10.43
2022-09-24T01:26:01.305Z,10.45
2022-09-24T01:28:38.094Z,10.29
2022-09-24T01:31:08.683Z,10.19
2022-09-24T01:33:34.049Z,10.19
2022-09-24T01:36:00.674Z,10.20
2022-09-24T01:38:28.707Z,10.25
2022-09-24T01:40:51.962Z,10.28
2022-09-24T01:43:15.996Z,10.26
2022-09-24T01:45:39.445Z,10.31
2022-09-24T01:48:01.855Z,10.33
2022-09-24T01:50:25.086Z,10.15
2022-09-24T01:52:55.950Z,10.11
2022-09-24T01:55:21.733Z,10.01
2022-09-24T01:57:48.759Z,10.10
2022-09-24T02:00:21.841Z,10.20
2022-09-24T02:02:53.383Z,10.03
2022-09-24T02:05:21.974Z,9.77
2022-09-24T02:08:05.019Z,9.97
2022-09-24T02:10:30.649Z,10.04
2022-09-24T02:13:01.655Z,10.12
2022-09-24T02:15:33.058Z,10.17
2022-09-24T02:17:58.018Z,10.04
2022-09-24T02:20:21.925Z,9.95
2022-09-24T02:22:44.468Z,9.94
2022-09-24T02:25:10.477Z,10.04
2022-09-24T02:27:31.995Z,10.05
2022-09-24T02:29:53.427Z,10.07
2022-09-24T02:32:19.866Z,10.05
2022-09-24T02:34:50.014Z,10.11
2022-09-24T02:37:13.122Z,10.19
2022-09-24T02:39:35.029Z,10.23
2022-09-24T02:41:58.209Z,10.27
2022-09-24T02:44:20.493Z,10.24
2022-09-24T02:46:42.971Z,10.18
2022-09-24T02:49:04.526Z,10.12
2022-09-24T02:51:26.450Z,10.10
2022-09-24T02:53:47.892Z,10.14
2022-09-24T02:56:09.421Z,10.07
2022-09-24T02:58:30.964Z,10.13
2022-09-24T03:00:53.671Z,10.14
2022-09-24T03:03:15.277Z,10.06
2022-09-24T03:05:36.783Z,10.12
2022-09-24T03:07:58.848Z,10.15
2022-09-24T03:10:20.317Z,10.18
2022-09-24T03:12:43.699Z,10.20
2022-09-24T03:15:05.685Z,10.27
2022-09-24T03:17:28.362Z,10.25
2022-09-24T03:19:49.838Z,10.12
2022-09-24T03:22:11.241Z,10.09
2022-09-24T03:24:32.683Z,10.04
2022-09-24T03:26:54.168Z,10.03
2022-09-24T03:29:15.610Z,10.09
2022-09-24T03:31:37.116Z,10.13
2022-09-24T03:33:59.317Z,10.17
2022-09-24T03:36:23.176Z,10.23
2022-09-24T03:38:46.177Z,10.31
2022-09-24T03:41:08.909Z,10.22
2022-09-24T03:43:31.366Z,10.16
2022-09-24T03:45:53.462Z,10.18
2022-09-24T03:48:16.202Z,10.09
2022-09-24T03:50:38.389Z,10.16
2022-09-24T03:52:59.810Z,10.19
2022-09-24T03:55:21.225Z,10.24
2022-09-24T03:57:42.670Z,10.24
2022-09-24T04:00:04.875Z,10.26
2022-09-24T04:02:26.391Z,10.23
2022-09-24T04:04:47.937Z,10.22
2022-09-24T04:07:09.378Z,10.28
2022-09-24T04:09:31.021Z,10.27
2022-09-24T04:11:53.236Z,10.19
2022-09-24T04:14:15.333Z,10.27
2022-09-24T04:16:36.809Z,10.33
2022-09-24T04:18:58.254Z,10.34
2022-09-24T04:21:19.694Z,10.35
2022-09-24T04:23:41.125Z,10.39
2022-09-24T04:26:02.591Z,10.33
2022-09-24T04:28:25.260Z,10.36
2022-09-24T04:30:46.669Z,10.25
2022-09-24T04:33:08.514Z,10.16
2022-09-24T04:35:32.135Z,10.26
2022-09-24T04:37:53.706Z,10.28
2022-09-24T04:40:16.257Z,10.29
2022-09-24T04:42:39.252Z,10.17
2022-09-24T04:45:01.060Z,10.14
2022-09-24T04:47:24.300Z,10.20
2022-09-24T04:49:45.900Z,10.22
2022-09-24T04:52:07.337Z,10.23
2022-09-24T04:54:29.668Z,10.29
2022-09-24T04:56:51.094Z,10.25
2022-09-24T04:59:12.493Z,10.25
2022-09-24T05:01:34.197Z,10.18
2022-09-24T05:03:56.166Z,10.15
2022-09-24T05:06:17.579Z,10.13
2022-09-24T05:08:39.027Z,10.17
2022-09-24T05:11:02.377Z,10.18
2022-09-24T05:13:23.877Z,10.17
2022-09-24T05:15:45.355Z,10.21
2022-09-24T05:18:06.833Z,10.10
2022-09-24T05:20:28.455Z,10.17
2022-09-24T05:22:50.696Z,10.20
2022-09-24T05:25:13.522Z,10.26
2022-09-24T05:27:35.885Z,10.22
2022-09-24T05:29:57.303Z,10.17
2022-09-24T05:32:20.158Z,10.22
2022-09-24T05:34:43.289Z,10.07
2022-09-24T05:37:05.067Z,9.85
2022-09-24T05:39:30.117Z,9.83
2022-09-24T05:41:56.291Z,9.95
2022-09-24T05:44:20.736Z,9.84
2022-09-24T05:46:42.237Z,9.91
2022-09-24T05:49:03.747Z,9.96
2022-09-24T05:51:25.521Z,10.03
2022-09-24T05:53:47.047Z,9.99
2022-09-24T05:56:10.295Z,9.90
2022-09-24T05:58:32.086Z,9.74
2022-09-24T06:00:53.642Z,9.86
2022-09-24T06:03:17.076Z,9.91
2022-09-24T06:05:38.611Z,9.94
2022-09-24T06:08:00.171Z,9.85
2022-09-24T06:10:21.665Z,9.91
2022-09-24T06:12:43.135Z,9.95
2022-09-24T06:15:04.969Z,9.99
2022-09-24T06:17:26.838Z,10.07
2022-09-24T06:19:48.351Z,10.09
2022-09-24T06:22:09.837Z,10.10
2022-09-24T06:24:31.275Z,10.18
2022-09-24T06:26:52.706Z,10.28
2022-09-24T06:29:15.142Z,10.34
2022-09-24T06:31:36.670Z,10.40
2022-09-24T06:33:58.144Z,10.43
2022-09-24T06:36:19.587Z,10.48
2022-09-24T06:38:41.274Z,10.54
2022-09-24T06:41:05.241Z,10.60
2022-09-24T06:43:26.932Z,10.69
2022-09-24T06:45:48.501Z,10.78
2022-09-24T06:48:14.928Z,10.84
2022-09-24T06:50:40.695Z,10.97
2022-09-24T06:53:05.420Z,11.01
2022-09-24T06:55:27.387Z,11.04
2022-09-24T06:57:49.105Z,11.18
2022-09-24T07:00:11.375Z,11.25
2022-09-24T07:02:32.897Z,11.36
2022-09-24T07:04:54.362Z,11.43
2022-09-24T07:07:32.833Z,11.51
2022-09-24T07:09:54.434Z,11.59
2022-09-24T07:12:15.864Z,11.62
2022-09-24T07:14:37.278Z,11.52
2022-09-24T07:16:58.691Z,11.63
2022-09-24T07:19:20.109Z,11.77
2022-09-24T07:21:41.578Z,11.87
2022-09-24T07:24:03.232Z,11.95
2022-09-24T07:26:24.738Z,12.03
2022-09-24T07:28:46.174Z,12.14
2022-09-24T07:31:08.760Z,12.18
2022-09-24T07:33:31.699Z,12.28
2022-09-24T07:35:53.140Z,12.26
2022-09-24T07:38:15.591Z,12.24
2022-09-24T07:40:37.091Z,12.30
2022-09-24T07:43:00.065Z,12.33
2022-09-24T07:45:23.291Z,12.44
2022-09-24T07:47:44.752Z,12.47
2022-09-24T07:50:06.355Z,12.67
2022-09-24T07:52:27.780Z,12.76
2022-09-24T07:54:49.836Z,12.88
2022-09-24T07:57:15.180Z,12.91
2022-09-24T07:59:36.603Z,13.07
2022-09-24T08:01:59.154Z,13.08
2022-09-24T08:04:20.795Z,13.19
2022-09-24T08:06:47.218Z,13.33
2022-09-24T08:09:09.371Z,13.58
2022-09-24T08:11:31.211Z,13.58
2022-09-24T08:13:52.625Z,13.63
2022-09-24T08:16:16.409Z,13.82
2022-09-24T08:18:37.881Z,13.99
2022-09-24T08:21:04.633Z,14.08
2022-09-24T08:23:26.080Z,14.27
2022-09-24T08:25:47.943Z,14.39
2022-09-24T08:28:12.124Z,14.48
2022-09-24T08:30:34.787Z,14.65
2022-09-24T08:32:56.235Z,14.64
2022-09-24T08:35:17.699Z,14.71
2022-09-24T08:37:39.179Z,14.87
2022-09-24T08:40:01.183Z,14.97
2022-09-24T08:42:44.933Z,15.13
2022-09-24T08:45:27.389Z,15.37
2022-09-24T08:48:10.052Z,15.29
2022-09-24T08:50:34.976Z,15.40
2022-09-24T08:53:06.738Z,15.44
2022-09-24T08:55:36.232Z,15.70
2022-09-24T08:58:17.472Z,15.72
2022-09-24T09:00:58.954Z,15.57
2022-09-24T09:03:40.587Z,15.69
2022-09-24T09:06:12.391Z,15.99
2022-09-24T09:09:06.320Z,16.13
2022-09-24T09:11:32.659Z,16.38
2022-09-24T09:14:03.982Z,16.22
2022-09-24T09:16:29.582Z,16.00
2022-09-24T09:18:55.896Z,16.18
2022-09-24T09:21:36.947Z,16.42
2022-09-24T09:24:01.182Z,16.35
2022-09-24T09:26:23.018Z,16.28
2022-09-24T09:28:46.259Z,16.28
2022-09-24T09:31:32.347Z,16.63
2022-09-24T09:34:12.098Z,16.77
2022-09-24T09:36:47.961Z,17.13
2022-09-24T09:39:33.153Z,17.32
2022-09-24T09:42:04.819Z,17.37
2022-09-24T09:44:30.453Z,17.55
2022-09-24T09:46:58.610Z,17.62
2022-09-24T09:49:20.660Z,17.36
2022-09-24T09:51:44.192Z,17.28
2022-09-24T09:54:05.808Z,17.28
2022-09-24T09:56:44.468Z,17.41
2022-09-24T09:59:16.565Z,17.77
2022-09-24T10:01:41.416Z,17.91
2022-09-24T10:04:04.659Z,18.00
2022-09-24T10:06:29.093Z,17.81
2022-09-24T10:08:50.597Z,17.95
2022-09-24T10:11:15.920Z,18.10
2022-09-24T10:13:37.350Z,18.23
2022-09-24T10:16:01.997Z,18.17
2022-09-24T10:18:29.612Z,18.39
2022-09-24T10:20:51.921Z,18.43
2022-09-24T10:23:21.074Z,18.64
2022-09-24T10:25:51.515Z,18.70
2022-09-24T10:28:38.503Z,18.90
2022-09-24T10:31:05.027Z,19.16
2022-09-24T10:33:35.328Z,19.11
2022-09-24T10:36:13.896Z,19.27
2022-09-24T10:38:35.346Z,19.58
2022-09-24T10:40:57.096Z,19.85
2022-09-24T10:43:21.329Z,20.11
2022-09-24T10:46:08.771Z,20.47
2022-09-24T10:48:39.213Z,20.68
2022-09-24T10:51:06.065Z,20.84
2022-09-24T10:53:53.383Z,21.02
2022-09-24T10:56:40.927Z,21.14
2022-09-24T10:59:34.820Z,21.30
2022-09-24T11:02:20.325Z,21.27
2022-09-24T11:04:58.719Z,21.45
2022-09-24T11:07:28.984Z,21.60
2022-09-24T11:09:56.274Z,21.79
2022-09-24T11:12:45.293Z,22.02
2022-09-24T11:15:25.803Z,22.17
2022-09-24T11:18:16.156Z,22.34
2022-09-24T11:20:39.502Z,22.58
2022-09-24T11:23:31.080Z,22.70
2022-09-24T11:26:11.960Z,23.00
2022-09-24T11:28:50.682Z,22.88
2022-09-24T11:31:30.706Z,23.01
2022-09-24T11:34:04.252Z,23.50
2022-09-24T11:36:50.562Z,23.60
2022-09-24T11:39:26.669Z,23.94
2022-09-24T11:42:32.782Z,23.94
2022-09-24T11:44:56.919Z,24.33
2022-09-24T11:47:45.134Z,24.12
2022-09-24T11:50:20.085Z,24.27
2022-09-24T11:52:48.011Z,24.07
2022-09-24T11:55:23.699Z,24.03
2022-09-24T11:57:53.169Z,24.06
2022-09-24T12:00:20.237Z,24.08
2022-09-24T12:02:48.675Z,24.38
2022-09-24T12:05:23.239Z,24.23
2022-09-24T12:07:58.584Z,23.91
2022-09-24T12:10:32.342Z,24.06
2022-09-24T12:13:07.034Z,23.88
2022-09-24T12:15:39.850Z,24.11
2022-09-24T12:18:08.947Z,24.44
2022-09-24T12:20:32.741Z,24.40
2022-09-24T12:23:09.401Z,24.24
2022-09-24T12:25:46.314Z,24.22
2022-09-24T12:28:38.072Z,23.86
2022-09-24T12:31:23.533Z,23.96
2022-09-24T12:33:55.345Z,24.10
2022-09-24T12:36:29.198Z,24.15
2022-09-24T12:38:57.002Z,23.95
2022-09-24T12:41:27.495Z,23.51
2022-09-24T12:43:51.877Z,23.52
2022-09-24T12:46:42.914Z,23.55
2022-09-24T12:49:04.768Z,23.35
2022-09-24T12:51:35.776Z,23.31
2022-09-24T12:54:00.509Z,23.28
2022-09-24T12:56:30.752Z,22.88
2022-09-24T12:58:53.338Z,22.63
2022-09-24T13:01:20.697Z,22.53
2022-09-24T13:03:46.967Z,22.47
2022-09-24T13:06:34.757Z,22.22
2022-09-24T13:08:56.210Z,22.08
2022-09-24T13:11:44.033Z,22.03
2022-09-24T13:14:18.267Z,22.00
2022-09-24T13:16:41.969Z,21.84
2022-09-24T13:19:06.079Z,21.77
2022-09-24T13:21:29.821Z,21.85
2022-09-24T13:23:51.997Z,21.71
2022-09-24T13:26:30.076Z,21.59
2022-09-24T13:28:56.525Z,21.80
2022-09-24T13:31:22.815Z,21.85
2022-09-24T13:33:48.109Z,21.87
2022-09-24T13:36:17.481Z,21.95
2022-09-24T13:38:52.936Z,21.84
2022-09-24T13:41:46.888Z,21.58
2022-09-24T13:44:42.380Z,21.94
2022-09-24T13:47:27.549Z,22.16
2022-09-24T13:49:51.626Z,22.30
2022-09-24T13:52:35.577Z,22.50
2022-09-24T13:55:00.769Z,22.34
2022-09-24T13:57:22.300Z,22.03
2022-09-24T13:59:43.711Z,21.90
2022-09-24T14:02:32.660Z,21.73
2022-09-24T14:04:58.192Z,21.83
2022-09-24T14:07:21.292Z,21.81
2022-09-24T14:09:44.420Z,21.76
2022-09-24T14:12:22.462Z,21.87
2022-09-24T14:14:47.334Z,22.14
2022-09-24T14:17:12.951Z,22.41
2022-09-24T14:19:34.675Z,22.54
2022-09-24T14:21:58.597Z,22.70
2022-09-24T14:24:36.986Z,22.54
2022-09-24T14:27:07.164Z,22.74
2022-09-24T14:29:43.932Z,22.90
2022-09-24T14:32:22.957Z,23.13
2022-09-24T14:34:44.436Z,23.26
2022-09-24T14:37:23.206Z,23.49
2022-09-24T14:39:48.223Z,23.46
2022-09-24T14:42:17.435Z,23.45
2022-09-24T14:44:44.452Z,23.40
2022-09-24T14:47:25.422Z,23.32
2022-09-24T14:49:46.856Z,23.31
2022-09-24T14:52:26.878Z,24.02
2022-09-24T14:54:48.367Z,25.17
2022-09-24T14:57:12.110Z,25.37
2022-09-24T14:59:37.548Z,25.56
2022-09-24T15:02:15.829Z,25.96
2022-09-24T15:04:37.988Z,26.08
2022-09-24T15:06:59.441Z,26.56
2022-09-24T15:09:28.362Z,25.99
2022-09-24T15:11:49.863Z,25.91
2022-09-24T15:14:18.100Z,25.64
2022-09-24T15:16:39.598Z,25.39
2022-09-24T15:19:06.801Z,25.25
2022-09-24T15:21:28.308Z,25.06
2022-09-24T15:23:49.729Z,25.26
2022-09-24T15:26:11.289Z,24.93
2022-09-24T15:28:32.843Z,24.93
2022-09-24T15:30:54.446Z,24.83
2022-09-24T15:33:17.573Z,24.53
2022-09-24T15:35:40.873Z,24.39
2022-09-24T15:38:02.454Z,24.26
2022-09-24T15:40:25.481Z,24.30
2022-09-24T15:42:47.143Z,24.18
2022-09-24T15:45:17.078Z,23.93
2022-09-24T15:47:38.497Z,23.83
2022-09-24T15:49:59.939Z,23.90
2022-09-24T15:52:27.782Z,23.57
2022-09-24T15:54:50.867Z,23.55
2022-09-24T15:57:12.830Z,23.36
2022-09-24T15:59:34.253Z,23.26
2022-09-24T16:02:01.121Z,23.25
2022-09-24T16:04:22.600Z,22.97
2022-09-24T16:06:44.138Z,22.96
2022-09-24T16:09:05.640Z,22.94
2022-09-24T16:11:27.464Z,22.87
2022-09-24T16:13:50.384Z,22.91
2022-09-24T16:16:12.064Z,22.96
2022-09-24T16:18:33.794Z,22.93
2022-09-24T16:20:56.231Z,22.90
2022-09-24T16:23:18.151Z,22.91
2022-09-24T16:25:40.214Z,22.78
2022-09-24T16:28:01.866Z,22.64
2022-09-24T16:30:23.355Z,22.29
2022-09-24T16:32:44.859Z,21.97
2022-09-24T16:35:06.720Z,21.80
2022-09-24T16:37:28.234Z,21.82
2022-09-24T16:39:49.712Z,21.83
2022-09-24T16:42:11.135Z,21.79
2022-09-24T16:44:32.553Z,21.62
2022-09-24T16:46:54.116Z,21.42
2022-09-24T16:49:15.586Z,21.28
2022-09-24T16:51:37.947Z,21.25
2022-09-24T16:53:59.403Z,21.10
2022-09-24T16:56:20.869Z,21.08
2022-09-24T16:58:43.751Z,20.95
2022-09-24T17:01:06.741Z,20.93
2022-09-24T17:03:28.237Z,20.88
2022-09-24T17:05:49.653Z,20.78
2022-09-24T17:08:11.065Z,20.66
2022-09-24T17:10:32.503Z,20.60
2022-09-24T17:12:53.956Z,20.54
2022-09-24T17:15:20.691Z,20.43
2022-09-24T17:17:49.410Z,20.32
2022-09-24T17:20:11.560Z,20.27
2022-09-24T17:22:32.998Z,20.15
2022-09-24T17:24:54.473Z,20.02
2022-09-24T17:27:15.883Z,19.72
2022-09-24T17:29:37.350Z,19.65
2022-09-24T17:31:59.382Z,19.62
2022-09-24T17:34:20.813Z,19.59
2022-09-24T17:36:42.682Z,19.48
2022-09-24T17:39:05.793Z,19.25
2022-09-24T17:41:29.026Z,19.01
2022-09-24T17:43:51.541Z,18.95
2022-09-24T17:46:21.754Z,18.97
2022-09-24T17:48:45.393Z,18.94
2022-09-24T17:51:10.518Z,18.70
2022-09-24T17:53:34.280Z,18.48
2022-09-24T17:55:55.708Z,18.45
2022-09-24T17:58:18.615Z,18.34
2022-09-24T18:00:40.044Z,18.27
2022-09-24T18:03:01.572Z,18.24
2022-09-24T18:05:23.098Z,18.02
2022-09-24T18:07:45.302Z,18.19
2022-09-24T18:10:07.562Z,18.35
2022-09-24T18:12:29.110Z,18.26
2022-09-24T18:14:50.563Z,18.17
2022-09-24T18:17:11.973Z,18.22
2022-09-24T18:19:33.398Z,18.22
2022-09-24T18:21:56.130Z,18.18
2022-09-24T18:24:17.895Z,18.14
2022-09-24T18:26:40.433Z,18.11
2022-09-24T18:29:06.074Z,18.09
2022-09-24T18:31:29.755Z,18.06
2022-09-24T18:33:52.982Z,17.88
2022-09-24T18:36:17.807Z,17.91
2022-09-24T18:38:39.550Z,17.87
2022-09-24T18:41:06.214Z,17.78
2022-09-24T18:43:28.419Z,17.64
2022-09-24T18:45:49.915Z,17.59
2022-09-24T18:48:11.308Z,17.48
2022-09-24T18:50:32.748Z,17.28
2022-09-24T18:52:54.166Z,17.22
2022-09-24T18:55:15.629Z,16.89
2022-09-24T18:57:37.834Z,16.96
2022-09-24T18:59:59.321Z,17.03
2022-09-24T19:02:25.234Z,17.01
2022-09-24T19:04:46.936Z,17.01
2022-09-24T19:07:09.028Z,17.07
2022-09-24T19:09:30.513Z,17.07
2022-09-24T19:11:51.944Z,17.08
2022-09-24T19:14:15.072Z,17.01
2022-09-24T19:16:36.509Z,16.90
2022-09-24T19:18:59.481Z,16.76
2022-09-24T19:21:25.539Z,16.67
2022-09-24T19:23:49.735Z,16.66
2022-09-24T19:26:13.215Z,16.66
2022-09-24T19:28:36.380Z,16.70
2022-09-24T19:30:58.003Z,16.68
2022-09-24T19:33:19.501Z,16.70
2022-09-24T19:35:41.227Z,16.67
2022-09-24T19:38:02.784Z,16.67
2022-09-24T19:40:24.316Z,16.63
2022-09-24T19:42:47.066Z,16.71
2022-09-24T19:45:10.016Z,16.70
2022-09-24T19:47:34.518Z,16.61
2022-09-24T19:49:55.960Z,16.50
2022-09-24T19:52:17.392Z,16.47
2022-09-24T19:54:38.833Z,16.48
2022-09-24T19:57:00.348Z,16.40
2022-09-24T19:59:21.772Z,16.37
2022-09-24T20:01:44.639Z,16.33
2022-09-24T20:04:07.507Z,16.32
2022-09-24T20:06:31.315Z,16.24
2022-09-24T20:08:53.136Z,16.08
2022-09-24T20:11:19.353Z,16.08
2022-09-24T20:13:46.251Z,16.04
2022-09-24T20:16:08.286Z,16.01
2022-09-24T20:18:31.345Z,15.80
2022-09-24T20:20:55.745Z,15.82
2022-09-24T20:23:17.428Z,15.85
2022-09-24T20:25:57.466Z,15.85
2022-09-24T20:28:19.047Z,15.85
2022-09-24T20:30:40.836Z,15.85
2022-09-24T20:33:02.340Z,15.67
2022-09-24T20:35:23.765Z,15.72
2022-09-24T20:37:47.575Z,15.81
2022-09-24T20:40:09.996Z,15.73
2022-09-24T20:42:31.512Z,15.72
2022-09-24T20:44:53.491Z,15.75
2022-09-24T20:47:15.403Z,15.76
2022-09-24T20:49:37.160Z,15.84
2022-09-24T20:51:58.707Z,15.85
2022-09-24T20:54:21.282Z,15.79
2022-09-24T20:56:43.427Z,15.64
2022-09-24T20:59:04.902Z,15.60
2022-09-24T21:01:26.369Z,15.62
2022-09-24T21:03:50.066Z,15.64
2022-09-24T21:06:13.149Z,15.68
2022-09-24T21:08:40.381Z,15.65
2022-09-24T21:11:06.966Z,15.62
2022-09-24T21:13:28.542Z,15.48
2022-09-24T21:16:01.748Z,15.43
2022-09-24T21:18:28.232Z,15.34
2022-09-24T21:20:54.699Z,15.39
2022-09-24T21:23:16.128Z,15.44
2022-09-24T21:25:53.996Z,15.46
2022-09-24T21:28:16.081Z,15.48
2022-09-24T21:30:37.660Z,15.46
2022-09-24T21:32:59.219Z,15.52
2022-09-24T21:35:20.838Z,15.52
2022-09-24T21:37:42.306Z,15.55
2022-09-24T21:40:03.915Z,15.54
2022-09-24T21:42:26.937Z,15.54
2022-09-24T21:44:48.358Z,15.53
2022-09-24T21:47:09.798Z,15.42
2022-09-24T21:49:33.570Z,15.35
2022-09-24T21:51:56.942Z,15.38
2022-09-24T21:54:18.533Z,15.39
2022-09-24T21:56:40.024Z,15.36
2022-09-24T21:59:22.413Z,15.30
2022-09-24T22:01:44.035Z,15.35
2022-09-24T22:04:08.324Z,15.35
2022-09-24T22:06:31.408Z,15.33
2022-09-24T22:08:56.088Z,15.35
2022-09-24T22:11:17.993Z,15.35
2022-09-24T22:13:40.319Z,15.32
2022-09-24T22:16:01.939Z,15.18
2022-09-24T22:18:24.274Z,15.19
2022-09-24T22:20:45.721Z,15.25
2022-09-24T22:23:07.126Z,15.20
2022-09-24T22:25:28.550Z,15.21
2022-09-24T22:27:49.955Z,15.14
2022-09-24T22:30:11.778Z,14.92
2022-09-24T22:32:33.239Z,14.70
2022-09-24T22:35:13.225Z,14.65
2022-09-24T22:37:34.694Z,14.74
2022-09-24T22:39:56.218Z,14.82
2022-09-24T22:42:17.640Z,14.84
2022-09-24T22:44:39.045Z,14.82
2022-09-24T22:47:00.493Z,14.82
2022-09-24T22:49:23.301Z,14.69
2022-09-24T22:51:44.757Z,14.58
2022-09-24T22:54:07.286Z,14.63
2022-09-24T22:56:30.046Z,14.67
2022-09-24T22:58:56.312Z,14.69
2022-09-24T23:01:23.558Z,14.71
2022-09-24T23:03:45.455Z,14.74
2022-09-24T23:06:08.229Z,14.75
2022-09-24T23:08:33.326Z,14.76
2022-09-24T23:10:54.867Z,14.76
2022-09-24T23:13:16.262Z,14.71
2022-09-24T23:15:37.711Z,14.69
2022-09-24T23:17:59.109Z,14.62
2022-09-24T23:20:21.964Z,14.63
2022-09-24T23:22:43.386Z,14.61
2022-09-24T23:25:05.215Z,14.55
2022-09-24T23:27:27.009Z,14.40
2022-09-24T23:29:49.118Z,14.48
2022-09-24T23:32:11.882Z,14.50
2022-09-24T23:34:33.328Z,14.58
2022-09-24T23:36:54.740Z,14.57
2022-09-24T23:39:16.199Z,14.58
2022-09-24T23:41:37.756Z,14.56
2022-09-24T23:44:00.128Z,14.54
2022-09-24T23:46:21.723Z,14.50
2022-09-24T23:48:43.265Z,14.42
2022-09-24T23:51:05.804Z,14.43
2022-09-24T23:53:27.711Z,14.33
2022-09-24T23:55:49.715Z,14.32
2022-09-24T23:58:11.133Z,14.17
